createdAt,value
2019-04-23T00:00:21.940Z,48.98
2019-04-23T00:02:25.152Z,50.71
2019-04-23T00:03:32.697Z,47.96
2019-04-23T00:04:25.150Z,48.08
2019-04-23T00:05:35.294Z,48.26
2019-04-23T00:06:28.788Z,48.47
2019-04-23T00:07:35.685Z,48.77
2019-04-23T00:08:29.412Z,48.59
2019-04-23T00:09:27.670Z,49.10
2019-04-23T00:11:47.873Z,48.80
2019-04-23T00:12:38.103Z,49.82
2019-04-23T00:13:29.837Z,46.63
2019-04-23T00:14:27.279Z,47.24
2019-04-23T00:15:28.905Z,47.14
2019-04-23T00:17:37.351Z,48.47
2019-04-23T00:18:30.132Z,48.16
2019-04-23T00:19:33.009Z,47.65
2019-04-23T00:20:30.167Z,48.26
2019-04-23T00:21:26.661Z,47.86
2019-04-23T00:22:28.946Z,47.86
2019-04-23T00:23:34.994Z,47.88
2019-04-23T00:24:52.837Z,48.77
2019-04-23T00:26:36.662Z,48.49
2019-04-23T00:29:41.466Z,48.80
2019-04-23T00:30:36.269Z,48.39
2019-04-23T00:33:31.436Z,48.28
2019-04-23T00:34:33.357Z,48.49
2019-04-23T00:35:33.926Z,48.49
2019-04-23T00:36:45.968Z,49.33
2019-04-23T00:37:31.547Z,48.92
2019-04-23T00:38:35.186Z,48.82
2019-04-23T00:39:38.966Z,48.21
2019-04-23T00:40:35.713Z,48.18
2019-04-23T00:41:36.271Z,48.51
2019-04-23T00:42:37.521Z,48.21
2019-04-23T00:43:34.252Z,48.51
2019-04-23T00:44:40.404Z,49.96
2019-04-23T00:45:39.888Z,49.54
2019-04-23T00:46:34.979Z,49.43
2019-04-23T00:47:48.650Z,50.89
2019-04-23T00:48:35.041Z,49.87
2019-04-23T00:49:35.630Z,49.87
2019-04-23T00:50:44.735Z,50.68
2019-04-23T00:51:36.652Z,49.35
2019-04-23T00:52:32.153Z,49.35
2019-04-23T00:53:32.633Z,48.74
2019-04-23T00:54:41.102Z,48.82
2019-04-23T00:55:35.154Z,48.92
2019-04-23T00:57:38.852Z,48.51
2019-04-23T00:59:42.221Z,50.58
2019-04-23T01:00:44.929Z,52.24
2019-04-23T01:01:42.921Z,51.34
2019-04-23T01:02:37.010Z,51.45
2019-04-23T01:03:30.771Z,52.67
2019-04-23T01:04:46.061Z,51.14
2019-04-23T01:05:35.217Z,50.83
2019-04-23T01:06:37.877Z,50.73
2019-04-23T01:07:38.546Z,50.63
2019-04-23T01:08:35.341Z,50.30
2019-04-23T01:09:39.328Z,51.12
2019-04-23T01:10:34.573Z,50.50
2019-04-23T01:11:31.750Z,50.50
2019-04-23T01:14:46.225Z,51.45
2019-04-23T01:15:41.134Z,51.14
2019-04-23T01:16:39.323Z,51.95
2019-04-23T01:18:46.901Z,52.57
2019-04-23T01:19:39.938Z,52.67
2019-04-23T01:20:44.508Z,51.16
2019-04-23T01:21:19.907Z,51.54
2019-04-23T01:22:19.105Z,50.83
2019-04-23T01:23:20.608Z,50.52
2019-04-23T01:24:23.977Z,50.60
2019-04-23T01:25:28.669Z,51.19
2019-04-23T01:26:42.124Z,50.99
2019-04-23T01:27:51.558Z,50.37
2019-04-23T01:28:49.727Z,50.37
2019-04-23T01:29:52.461Z,49.76
2019-04-23T01:30:52.796Z,51.27
2019-04-23T01:31:47.968Z,50.78
2019-04-23T01:32:46.651Z,50.48
2019-04-23T01:33:53.225Z,50.68
2019-04-23T01:34:51.617Z,50.04
2019-04-23T01:35:51.205Z,50.76
2019-04-23T01:36:44.728Z,50.66
2019-04-23T01:37:58.401Z,49.84
2019-04-23T01:38:54.745Z,49.95
2019-04-23T01:39:45.409Z,50.35
2019-04-23T01:41:00.378Z,50.66
2019-04-23T01:41:53.255Z,52.93
2019-04-23T01:42:44.231Z,50.56
2019-04-23T01:43:46.121Z,50.35
2019-04-23T01:44:50.877Z,50.35
2019-04-23T01:45:44.361Z,50.56
2019-04-23T01:46:54.180Z,50.04
2019-04-23T01:47:50.052Z,50.74
2019-04-23T01:48:56.773Z,50.23
2019-04-23T01:50:03.121Z,49.41
2019-04-23T01:51:54.901Z,50.71
2019-04-23T01:52:55.088Z,50.23
2019-04-23T01:53:51.510Z,50.81
2019-04-23T01:54:52.351Z,50.20
2019-04-23T01:55:52.688Z,52.06
2019-04-23T01:56:47.376Z,50.12
2019-04-23T01:58:57.110Z,51.04
2019-04-23T01:59:55.211Z,51.25
2019-04-23T02:00:53.223Z,50.84
2019-04-23T02:01:55.676Z,50.63
2019-04-23T02:02:56.147Z,50.33
2019-04-23T02:03:56.077Z,50.33
2019-04-23T02:05:05.979Z,50.74
2019-04-23T02:05:56.862Z,51.04
2019-04-23T02:06:55.929Z,50.56
2019-04-23T02:08:56.780Z,51.35
2019-04-23T02:11:59.169Z,50.53
2019-04-23T02:13:01.573Z,49.92
2019-04-23T02:13:55.413Z,51.02
2019-04-23T02:14:59.424Z,50.12
2019-04-23T02:15:53.990Z,49.82
2019-04-23T02:16:55.459Z,50.20
2019-04-23T02:17:58.715Z,50.41
2019-04-23T02:18:56.716Z,50.71
2019-04-23T02:20:01.975Z,51.25
2019-04-23T02:21:00.670Z,51.04
2019-04-23T02:21:59.653Z,51.45
2019-04-23T02:23:06.207Z,51.98
2019-04-23T02:23:55.579Z,51.48
2019-04-23T02:25:02.017Z,51.89
2019-04-23T02:25:54.034Z,52.50
2019-04-23T02:26:57.551Z,52.70
2019-04-23T02:29:03.241Z,54.59
2019-04-23T02:32:01.551Z,52.85
2019-04-23T02:36:01.953Z,52.19
2019-04-23T02:37:15.657Z,52.80
2019-04-23T02:39:02.815Z,50.94
2019-04-23T02:41:03.660Z,52.58
2019-04-23T02:42:19.155Z,52.78
2019-04-23T02:43:06.393Z,52.80
2019-04-23T02:45:02.184Z,52.91
2019-04-23T02:47:12.621Z,52.80
2019-04-23T02:49:11.999Z,53.13
2019-04-23T02:50:54.064Z,53.34
2019-04-23T02:53:20.803Z,52.62
2019-04-23T02:55:08.988Z,52.29
2019-04-23T02:56:12.317Z,52.60
2019-04-23T03:00:25.349Z,52.39
2019-04-23T03:02:24.401Z,52.80
2019-04-23T03:03:14.075Z,52.19
2019-04-23T03:04:10.361Z,52.62
2019-04-23T03:05:00.904Z,52.83
2019-04-23T03:06:05.887Z,52.72
2019-04-23T03:09:27.757Z,56.05
2019-04-23T03:10:08.171Z,56.05
2019-04-23T03:11:25.176Z,56.69
2019-04-23T03:13:21.673Z,57.61
2019-04-23T03:14:07.451Z,57.64
2019-04-23T03:18:28.569Z,58.38
2019-04-23T03:19:11.289Z,58.45
2019-04-23T03:20:15.117Z,59.92
2019-04-23T03:22:15.373Z,58.17
2019-04-23T03:23:27.576Z,59.07
2019-04-23T03:25:12.893Z,58.58
2019-04-23T03:26:25.795Z,58.38
2019-04-23T03:28:07.249Z,58.48
2019-04-23T03:33:06.960Z,57.84
2019-04-23T03:35:16.299Z,57.40
2019-04-23T03:36:10.715Z,56.89
2019-04-23T03:38:23.695Z,56.69
2019-04-23T03:39:05.751Z,56.38
2019-04-23T03:40:21.480Z,56.48
2019-04-23T03:41:32.019Z,57.71
2019-04-23T03:42:17.293Z,57.10
2019-04-23T03:43:14.522Z,56.69
2019-04-23T03:44:18.577Z,56.69
2019-04-23T03:45:44.502Z,56.89
2019-04-23T03:47:20.657Z,57.71
2019-04-23T03:48:26.217Z,58.33
2019-04-23T03:49:30.010Z,58.76
2019-04-23T03:50:25.240Z,59.48
2019-04-23T03:51:18.606Z,59.41
2019-04-23T03:52:20.750Z,59.61
2019-04-23T03:53:29.888Z,59.20
2019-04-23T03:55:18.546Z,59.50
2019-04-23T03:56:24.085Z,60.53
2019-04-23T03:57:18.250Z,60.33
2019-04-23T03:58:21.204Z,59.92
2019-04-23T03:59:26.555Z,59.61
2019-04-23T04:00:28.987Z,60.22
2019-04-23T04:01:21.625Z,60.66
2019-04-23T04:02:33.386Z,60.74
2019-04-23T04:03:42.184Z,60.56
2019-04-23T04:05:22.321Z,60.56
2019-04-23T04:06:24.369Z,60.84
2019-04-23T04:07:28.433Z,60.56
2019-04-23T04:08:20.273Z,60.53
2019-04-23T04:09:32.293Z,60.74
2019-04-23T04:10:16.032Z,60.76
2019-04-23T04:11:25.531Z,60.56
2019-04-23T04:12:30.050Z,60.46
2019-04-23T04:14:32.078Z,60.33
2019-04-23T04:15:43.578Z,60.05
2019-04-23T04:16:21.846Z,60.33
2019-04-23T04:17:19.676Z,60.63
2019-04-23T04:18:33.002Z,60.76
2019-04-23T04:20:32.625Z,60.86
2019-04-23T04:21:27.636Z,60.15
2019-04-23T04:22:29.333Z,60.56
2019-04-23T04:26:32.712Z,60.22
2019-04-23T04:27:24.557Z,59.81
2019-04-23T04:29:30.096Z,59.61
2019-04-23T04:30:29.581Z,59.92
2019-04-23T04:31:40.055Z,59.81
2019-04-23T04:32:24.667Z,59.81
2019-04-23T04:34:58.437Z,60.25
2019-04-23T04:35:27.297Z,60.66
2019-04-23T04:36:45.612Z,60.76
2019-04-23T04:39:30.381Z,62.02
2019-04-23T04:40:29.302Z,62.54
2019-04-23T04:45:47.285Z,63.28
2019-04-23T04:47:42.536Z,64.07
2019-04-23T04:49:36.892Z,62.92
2019-04-23T04:50:26.809Z,63.64
2019-04-23T04:53:47.021Z,63.73
2019-04-23T04:55:31.603Z,62.58
2019-04-23T04:56:29.460Z,61.43
2019-04-23T04:58:43.154Z,58.81
2019-04-23T05:00:58.298Z,58.86
2019-04-23T05:02:53.914Z,58.60
2019-04-23T05:03:36.159Z,59.11
2019-04-23T05:04:37.942Z,58.57
2019-04-23T05:06:01.328Z,59.28
2019-04-23T05:06:37.901Z,59.08
2019-04-23T05:08:39.694Z,59.52
2019-04-23T05:09:43.987Z,60.19
2019-04-23T05:12:27.590Z,60.72
2019-04-23T05:13:41.278Z,61.54
2019-04-23T05:14:33.703Z,60.31
2019-04-23T05:15:29.756Z,60.42
2019-04-23T05:16:27.509Z,60.49
2019-04-23T05:17:32.755Z,57.73
2019-04-23T05:18:31.099Z,58.32
2019-04-23T05:21:43.599Z,58.22
2019-04-23T05:22:30.879Z,59.21
2019-04-23T05:23:33.834Z,58.09
2019-04-23T05:24:28.748Z,58.26
2019-04-23T05:25:25.465Z,57.62
2019-04-23T05:26:27.035Z,55.76
2019-04-23T05:27:34.540Z,55.13
2019-04-23T05:28:31.599Z,53.78
2019-04-23T05:29:34.358Z,55.46
2019-04-23T05:30:34.913Z,53.37
2019-04-23T05:32:27.085Z,48.71
2019-04-23T05:33:28.914Z,47.44
2019-04-23T05:34:27.574Z,49.04
2019-04-23T05:35:56.167Z,47.09
2019-04-23T05:36:34.405Z,49.75
2019-04-23T05:37:42.306Z,47.85
2019-04-23T05:38:54.251Z,49.06
2019-04-23T05:40:40.357Z,49.03
2019-04-23T05:42:32.690Z,49.97
2019-04-23T05:43:38.102Z,49.56
2019-04-23T05:45:34.483Z,50.04
2019-04-23T05:46:33.781Z,49.92
2019-04-23T05:47:50.640Z,48.22
2019-04-23T05:48:34.824Z,50.76
2019-04-23T05:49:33.078Z,47.53
2019-04-23T05:50:44.436Z,49.13
2019-04-23T05:51:51.022Z,48.14
2019-04-23T05:52:36.716Z,50.48
2019-04-23T05:53:40.762Z,49.82
2019-04-23T05:54:37.061Z,50.43
2019-04-23T05:55:38.851Z,48.18
2019-04-23T05:56:32.377Z,46.67
2019-04-23T05:57:34.646Z,48.55
2019-04-23T05:58:38.417Z,48.42
2019-04-23T05:59:48.483Z,48.42
2019-04-23T06:00:41.599Z,49.41
2019-04-23T06:02:45.310Z,47.22
2019-04-23T06:03:42.062Z,46.25
2019-04-23T06:04:35.875Z,47.52
2019-04-23T06:05:41.541Z,47.02
2019-04-23T06:06:47.147Z,49.06
2019-04-23T06:08:39.124Z,47.02
2019-04-23T06:09:53.524Z,45.50
2019-04-23T06:10:40.743Z,45.90
2019-04-23T06:11:47.355Z,48.00
2019-04-23T06:12:37.063Z,45.57
2019-04-23T06:13:44.593Z,48.54
2019-04-23T06:14:43.768Z,48.13
2019-04-23T06:15:36.879Z,47.67
2019-04-23T06:16:41.835Z,47.35
2019-04-23T06:17:39.252Z,46.22
2019-04-23T06:18:44.726Z,46.26
2019-04-23T06:19:36.810Z,45.35
2019-04-23T06:20:45.409Z,44.92
2019-04-23T06:21:56.154Z,48.36
2019-04-23T06:22:45.972Z,45.94
2019-04-23T06:23:43.886Z,45.25
2019-04-23T06:24:41.510Z,46.59
2019-04-23T06:25:57.175Z,47.80
2019-04-23T06:27:39.728Z,47.55
2019-04-23T06:28:40.583Z,47.35
2019-04-23T06:29:45.021Z,48.03
2019-04-23T06:30:48.954Z,47.83
2019-04-23T06:31:44.081Z,47.53
2019-04-23T06:32:37.798Z,44.70
2019-04-23T06:33:41.305Z,48.24
2019-04-23T06:34:50.294Z,45.45
2019-04-23T06:35:45.204Z,44.95
2019-04-23T06:36:49.191Z,46.01
2019-04-23T06:38:06.290Z,44.78
2019-04-23T06:38:54.484Z,44.72
2019-04-23T06:39:41.528Z,47.38
2019-04-23T06:40:43.529Z,46.83
2019-04-23T06:41:44.527Z,46.06
2019-04-23T06:42:50.221Z,46.28
2019-04-23T06:43:49.697Z,47.50
2019-04-23T06:44:45.490Z,45.65
2019-04-23T06:46:01.343Z,47.58
2019-04-23T06:46:50.258Z,46.79
2019-04-23T06:47:42.914Z,45.78
2019-04-23T06:48:40.834Z,46.46
2019-04-23T06:49:44.221Z,46.99
2019-04-23T06:50:50.865Z,46.16
2019-04-23T06:51:53.311Z,45.45
2019-04-23T06:52:43.820Z,46.77
2019-04-23T06:53:43.783Z,45.61
2019-04-23T06:54:51.404Z,45.57
2019-04-23T06:55:49.202Z,44.76
2019-04-23T06:56:53.696Z,45.49
2019-04-23T06:57:48.157Z,45.71
2019-04-23T06:58:43.971Z,45.47
2019-04-23T06:59:59.187Z,45.57
2019-04-23T07:00:48.151Z,45.95
2019-04-23T07:01:56.293Z,44.94
2019-04-23T07:02:44.404Z,44.74
2019-04-23T07:03:55.743Z,45.39
2019-04-23T07:05:01.767Z,44.46
2019-04-23T07:05:53.477Z,44.98
2019-04-23T07:06:56.601Z,44.76
2019-04-23T07:08:02.765Z,45.26
2019-04-23T07:09:07.155Z,45.32
2019-04-23T07:09:50.520Z,45.30
2019-04-23T07:10:49.108Z,42.98
2019-04-23T07:12:52.292Z,43.85
2019-04-23T07:15:02.698Z,44.96
2019-04-23T07:15:53.363Z,43.73
2019-04-23T07:16:51.241Z,43.80
2019-04-23T07:17:47.766Z,43.40
2019-04-23T07:19:48.455Z,43.79
2019-04-23T07:20:50.536Z,45.07
2019-04-23T07:21:52.547Z,41.93
2019-04-23T07:23:03.504Z,44.49
2019-04-23T07:24:00.643Z,45.07
2019-04-23T07:24:52.758Z,44.53
2019-04-23T07:26:02.487Z,42.11
2019-04-23T07:26:45.006Z,42.33
2019-04-23T07:27:47.623Z,44.67
2019-04-23T07:28:55.607Z,43.66
2019-04-23T07:29:58.117Z,45.20
2019-04-23T07:31:00.446Z,43.04
2019-04-23T07:31:54.698Z,44.17
2019-04-23T07:33:57.589Z,43.18
2019-04-23T07:35:04.520Z,44.51
2019-04-23T07:35:51.790Z,44.17
2019-04-23T07:36:53.786Z,43.79
2019-04-23T07:39:01.577Z,43.46
2019-04-23T07:40:10.978Z,43.52
2019-04-23T07:41:00.166Z,42.33
2019-04-23T07:42:03.504Z,44.15
2019-04-23T07:42:58.342Z,43.16
2019-04-23T07:44:08.593Z,43.87
2019-04-23T07:44:59.438Z,43.77
2019-04-23T07:46:02.220Z,44.31
2019-04-23T07:47:11.736Z,43.37
2019-04-23T07:48:08.079Z,42.94
2019-04-23T07:48:56.386Z,45.50
2019-04-23T07:50:11.382Z,43.77
2019-04-23T07:50:55.039Z,45.34
2019-04-23T07:52:06.632Z,43.59
2019-04-23T07:53:05.545Z,43.68
2019-04-23T07:54:01.492Z,42.40
2019-04-23T07:55:02.542Z,43.93
2019-04-23T07:56:02.528Z,44.63
2019-04-23T07:57:09.078Z,44.27
2019-04-23T07:58:06.548Z,44.37
2019-04-23T07:59:07.427Z,45.10
2019-04-23T08:00:00.501Z,45.38
2019-04-23T08:02:03.462Z,43.85
2019-04-23T08:03:14.306Z,44.55
2019-04-23T08:04:04.609Z,44.19
2019-04-23T08:05:07.706Z,43.79
2019-04-23T08:05:55.340Z,44.92
2019-04-23T08:07:00.425Z,46.01
2019-04-23T08:08:03.879Z,45.20
2019-04-23T08:09:03.644Z,44.87
2019-04-23T08:10:02.402Z,44.43
2019-04-23T08:11:25.883Z,44.51
2019-04-23T08:12:03.054Z,44.79
2019-04-23T08:13:08.534Z,44.61
2019-04-23T08:16:08.850Z,45.21
2019-04-23T08:16:58.247Z,43.02
2019-04-23T08:18:07.098Z,44.83
2019-04-23T08:18:57.684Z,43.62
2019-04-23T08:21:02.473Z,45.26
2019-04-23T08:22:13.901Z,43.74
2019-04-23T08:23:03.901Z,45.46
2019-04-23T08:25:07.868Z,42.84
2019-04-23T08:26:15.588Z,45.03
2019-04-23T08:27:08.222Z,43.12
2019-04-23T08:28:08.015Z,43.93
2019-04-23T08:30:00.672Z,43.14
2019-04-23T08:31:09.858Z,43.64
2019-04-23T08:32:07.645Z,41.95
2019-04-23T08:33:04.256Z,42.68
2019-04-23T08:34:20.434Z,43.93
2019-04-23T08:36:12.188Z,42.78
2019-04-23T08:37:08.936Z,43.99
2019-04-23T08:38:18.589Z,43.71
2019-04-23T08:39:10.293Z,44.51
2019-04-23T08:40:11.999Z,43.48
2019-04-23T08:41:21.455Z,44.29
2019-04-23T08:42:27.065Z,43.66
2019-04-23T08:43:25.103Z,44.29
2019-04-23T08:44:18.293Z,44.21
2019-04-23T08:45:18.569Z,45.32
2019-04-23T08:46:15.293Z,43.66
2019-04-23T08:47:12.731Z,44.83
2019-04-23T08:49:13.678Z,43.95
2019-04-23T08:50:04.382Z,43.64
2019-04-23T08:51:23.754Z,45.27
2019-04-23T08:52:11.631Z,43.96
2019-04-23T08:53:23.326Z,43.04
2019-04-23T08:54:15.176Z,43.46
2019-04-23T08:55:11.146Z,43.14
2019-04-23T08:56:11.986Z,44.71
2019-04-23T08:58:14.384Z,44.67
2019-04-23T08:59:20.528Z,44.29
2019-04-23T09:00:10.766Z,45.97
2019-04-23T09:01:10.679Z,44.05
2019-04-23T09:02:22.888Z,43.42
2019-04-23T09:03:18.855Z,42.92
2019-04-23T09:04:09.283Z,43.34
2019-04-23T09:05:48.322Z,46.14
2019-04-23T09:06:10.770Z,45.16
2019-04-23T09:07:17.875Z,45.21
2019-04-23T09:08:15.573Z,45.00
2019-04-23T09:09:20.082Z,43.18
2019-04-23T09:11:30.887Z,45.70
2019-04-23T09:12:22.031Z,43.36
2019-04-23T09:13:40.165Z,45.47
2019-04-23T09:14:07.274Z,44.17
2019-04-23T09:16:13.646Z,43.26
2019-04-23T09:17:21.211Z,43.87
2019-04-23T09:18:15.889Z,43.62
2019-04-23T09:19:32.286Z,45.23
2019-04-23T09:20:27.703Z,42.84
2019-04-23T09:21:14.160Z,43.84
2019-04-23T09:22:22.001Z,41.63
2019-04-23T09:23:22.341Z,44.09
2019-04-23T09:24:13.256Z,43.76
2019-04-23T09:25:32.119Z,44.09
2019-04-23T09:27:23.248Z,43.64
2019-04-23T09:28:29.689Z,42.21
2019-04-23T09:29:19.139Z,43.96
2019-04-23T09:30:20.933Z,41.07
2019-04-23T09:31:31.589Z,42.68
2019-04-23T09:33:23.961Z,42.25
2019-04-23T09:34:20.806Z,41.67
2019-04-23T09:35:20.719Z,43.56
2019-04-23T09:36:22.471Z,41.57
2019-04-23T09:37:26.830Z,43.00
2019-04-23T09:38:19.882Z,42.58
2019-04-23T09:39:20.578Z,41.29
2019-04-23T09:40:32.111Z,43.06
2019-04-23T09:42:29.590Z,41.05
2019-04-23T09:43:22.851Z,41.96
2019-04-23T09:44:41.076Z,41.67
2019-04-23T09:45:23.382Z,43.28
2019-04-23T09:46:25.762Z,42.11
2019-04-23T09:47:24.527Z,42.52
2019-04-23T09:48:18.113Z,40.59
2019-04-23T09:50:26.350Z,39.89
2019-04-23T09:51:27.781Z,40.59
2019-04-23T09:52:27.598Z,41.03
2019-04-23T09:53:29.124Z,41.07
2019-04-23T09:54:23.650Z,43.38
2019-04-23T09:55:27.462Z,41.89
2019-04-23T09:56:23.631Z,43.48
2019-04-23T09:57:17.091Z,42.27
2019-04-23T09:58:15.135Z,43.46
2019-04-23T10:00:38.052Z,41.65
2019-04-23T10:01:32.779Z,41.29
2019-04-23T10:02:20.243Z,42.97
2019-04-23T10:03:09.103Z,42.58
2019-04-23T10:04:13.508Z,41.17
2019-04-23T10:05:11.078Z,43.58
2019-04-23T10:06:06.326Z,43.18
2019-04-23T10:07:12.545Z,43.36
2019-04-23T10:08:05.072Z,42.03
2019-04-23T10:09:04.040Z,42.11
2019-04-23T10:09:59.555Z,40.71
2019-04-23T10:10:57.513Z,39.62
2019-04-23T10:11:58.758Z,41.91
2019-04-23T10:12:58.115Z,40.93
2019-04-23T10:13:58.810Z,40.43
2019-04-23T10:15:09.446Z,41.65
2019-04-23T10:15:59.972Z,42.74
2019-04-23T10:16:58.101Z,40.71
2019-04-23T10:18:00.358Z,41.31
2019-04-23T10:19:01.030Z,40.19
2019-04-23T10:20:00.624Z,42.80
2019-04-23T10:20:59.531Z,40.03
2019-04-23T10:21:59.777Z,41.01
2019-04-23T10:23:00.168Z,41.51
2019-04-23T10:24:01.433Z,42.90
2019-04-23T10:25:01.198Z,41.77
2019-04-23T10:25:59.439Z,40.97
2019-04-23T10:27:00.000Z,40.87
2019-04-23T10:28:06.540Z,42.60
2019-04-23T10:29:02.393Z,41.66
2019-04-23T10:30:01.656Z,41.38
2019-04-23T10:31:02.734Z,41.89
2019-04-23T10:32:02.081Z,41.51
2019-04-23T10:33:01.400Z,42.61
2019-04-23T10:34:02.156Z,43.12
2019-04-23T10:35:15.132Z,40.69
2019-04-23T10:36:09.440Z,40.59
2019-04-23T10:37:05.054Z,39.91
2019-04-23T10:38:05.314Z,39.40
2019-04-23T10:39:14.199Z,41.67
2019-04-23T10:40:07.942Z,41.11
2019-04-23T10:41:04.537Z,38.81
2019-04-23T10:42:03.387Z,39.22
2019-04-23T10:43:05.391Z,39.51
2019-04-23T10:44:05.008Z,39.61
2019-04-23T10:45:20.736Z,38.71
2019-04-23T10:46:26.848Z,38.63
2019-04-23T10:47:32.323Z,39.65
2019-04-23T10:48:38.795Z,39.25
2019-04-23T10:50:44.468Z,39.39
2019-04-23T10:52:32.115Z,38.45
2019-04-23T10:53:37.922Z,39.03
2019-04-23T10:55:42.171Z,39.87
2019-04-23T10:56:42.655Z,38.26
2019-04-23T10:57:44.103Z,37.49
2019-04-23T10:58:35.296Z,38.91
2019-04-23T10:59:40.352Z,39.26
2019-04-23T11:00:37.522Z,38.79
2019-04-23T11:01:39.140Z,37.27
2019-04-23T11:03:48.994Z,36.91
2019-04-23T11:04:49.153Z,39.41
2019-04-23T11:05:52.239Z,38.38
2019-04-23T11:06:41.040Z,39.28
2019-04-23T11:08:38.615Z,39.61
2019-04-23T11:09:50.032Z,39.72
2019-04-23T11:10:40.927Z,38.63
2019-04-23T11:11:36.127Z,39.43
2019-04-23T11:12:42.231Z,40.85
2019-04-23T11:13:37.849Z,40.55
2019-04-23T11:14:46.212Z,41.13
2019-04-23T11:17:47.712Z,38.29
2019-04-23T11:18:53.578Z,38.96
2019-04-23T11:20:45.796Z,40.48
2019-04-23T11:21:43.076Z,37.72
2019-04-23T11:23:42.028Z,38.89
2019-04-23T11:25:36.772Z,37.88
2019-04-23T11:26:42.675Z,38.46
2019-04-23T11:28:02.818Z,38.85
2019-04-23T11:28:38.462Z,38.07
2019-04-23T11:29:48.609Z,37.92
2019-04-23T11:33:42.951Z,39.43
2019-04-23T11:36:01.861Z,40.91
2019-04-23T11:39:45.072Z,39.73
2019-04-23T11:40:37.080Z,39.05
2019-04-23T11:41:53.938Z,39.03
2019-04-23T11:42:42.650Z,40.93
2019-04-23T11:44:02.347Z,39.05
2019-04-23T11:44:49.499Z,39.05
2019-04-23T11:45:57.569Z,38.95
2019-04-23T11:46:57.446Z,39.72
2019-04-23T11:48:26.388Z,39.63
2019-04-23T11:48:59.496Z,38.81
2019-04-23T11:50:01.540Z,38.57
2019-04-23T11:51:20.507Z,39.54
2019-04-23T11:51:57.846Z,38.09
2019-04-23T11:52:48.588Z,38.09
2019-04-23T11:53:52.412Z,38.21
2019-04-23T11:54:45.365Z,36.73
2019-04-23T11:55:55.629Z,38.42
2019-04-23T11:57:14.119Z,36.79
2019-04-23T11:58:00.697Z,36.49
2019-04-23T11:58:46.097Z,38.38
2019-04-23T12:01:04.564Z,38.57
2019-04-23T12:01:52.807Z,36.79
2019-04-23T12:03:57.097Z,39.15
2019-04-23T12:05:00.921Z,41.83
2019-04-23T12:05:50.119Z,38.71
2019-04-23T12:06:52.447Z,39.89
2019-04-23T12:07:50.270Z,38.38
2019-04-23T12:08:51.053Z,39.26
2019-04-23T12:11:00.453Z,39.62
2019-04-23T12:12:46.001Z,36.76
2019-04-23T12:13:51.494Z,36.27
2019-04-23T12:14:47.215Z,38.39
2019-04-23T12:15:53.283Z,36.57
2019-04-23T12:17:05.551Z,35.66
2019-04-23T12:19:14.346Z,36.07
2019-04-23T12:19:55.723Z,32.18
2019-04-23T12:20:48.787Z,34.75
2019-04-23T12:23:59.496Z,38.25
2019-04-23T12:25:58.625Z,38.70
2019-04-23T12:27:42.175Z,36.18
2019-04-23T12:29:54.571Z,36.47
2019-04-23T12:30:50.593Z,36.37
2019-04-23T12:31:56.888Z,39.03
2019-04-23T12:33:11.594Z,36.88
2019-04-23T12:33:57.539Z,34.56
2019-04-23T12:35:50.395Z,35.21
2019-04-23T12:36:54.280Z,34.64
2019-04-23T12:37:56.234Z,35.38
2019-04-23T12:39:00.984Z,35.49
2019-04-23T12:40:03.040Z,35.28
2019-04-23T12:40:56.414Z,34.66
2019-04-23T12:42:01.981Z,37.70
2019-04-23T12:43:57.622Z,35.28
2019-04-23T12:45:06.937Z,38.78
2019-04-23T12:45:52.010Z,37.01
2019-04-23T12:47:05.615Z,35.17
2019-04-23T12:48:10.536Z,35.54
2019-04-23T12:49:06.971Z,35.11
2019-04-23T12:50:18.868Z,36.05
2019-04-23T12:51:18.256Z,35.19
2019-04-23T12:54:02.738Z,35.51
2019-04-23T12:55:08.524Z,34.61
2019-04-23T12:56:21.233Z,37.81
2019-04-23T12:57:09.164Z,36.82
2019-04-23T12:58:03.527Z,36.41
2019-04-23T12:58:56.360Z,35.71
2019-04-23T13:01:05.581Z,36.19
2019-04-23T13:02:08.135Z,34.58
2019-04-23T13:02:55.459Z,38.46
2019-04-23T13:03:50.589Z,35.84
2019-04-23T13:05:05.945Z,36.46
2019-04-23T13:05:55.487Z,34.68
2019-04-23T13:07:00.183Z,35.47
2019-04-23T13:07:58.512Z,35.51
2019-04-23T13:09:01.177Z,36.89
2019-04-23T13:09:58.158Z,35.46
2019-04-23T13:11:10.175Z,33.68
2019-04-23T13:12:12.570Z,36.84
2019-04-23T13:13:11.706Z,36.39
2019-04-23T13:14:08.569Z,35.28
2019-04-23T13:15:03.250Z,36.77
2019-04-23T13:16:05.913Z,36.79
2019-04-23T13:17:14.190Z,34.75
2019-04-23T13:18:04.759Z,35.05
2019-04-23T13:19:19.030Z,36.25
2019-04-23T13:21:15.760Z,36.80
2019-04-23T13:22:11.992Z,38.09
2019-04-23T13:24:04.331Z,37.32
2019-04-23T13:25:02.022Z,36.79
2019-04-23T13:25:59.656Z,38.09
2019-04-23T13:27:15.395Z,37.82
2019-04-23T13:28:08.468Z,39.10
2019-04-23T13:29:11.862Z,37.06
2019-04-23T13:30:14.398Z,39.56
2019-04-23T13:31:08.588Z,36.02
2019-04-23T13:32:05.436Z,39.42
2019-04-23T13:33:12.582Z,38.76
2019-04-23T13:34:08.990Z,36.39
2019-04-23T13:35:23.065Z,38.52
2019-04-23T13:36:29.023Z,39.54
2019-04-23T13:37:16.276Z,38.62
2019-04-23T13:39:12.010Z,37.30
2019-04-23T13:40:13.034Z,37.04
2019-04-23T13:41:21.734Z,38.24
2019-04-23T13:42:19.826Z,38.78
2019-04-23T13:43:14.914Z,38.46
2019-04-23T13:44:00.268Z,38.62
2019-04-23T13:45:17.550Z,36.84
2019-04-23T13:47:21.952Z,39.14
2019-04-23T13:49:10.907Z,38.12
2019-04-23T13:50:24.862Z,38.00
2019-04-23T13:51:14.213Z,37.30
2019-04-23T13:52:37.844Z,39.06
2019-04-23T13:53:20.979Z,40.22
2019-04-23T13:54:24.170Z,40.58
2019-04-23T13:56:09.156Z,38.98
2019-04-23T13:57:44.053Z,40.37
2019-04-23T13:58:14.683Z,39.07
2019-04-23T13:59:16.236Z,40.28
2019-04-23T14:00:20.902Z,38.46
2019-04-23T14:02:24.040Z,38.98
2019-04-23T14:03:13.951Z,38.76
2019-04-23T14:04:14.327Z,40.56
2019-04-23T14:05:12.699Z,40.52
2019-04-23T14:07:17.445Z,41.93
2019-04-23T14:08:28.499Z,38.94
2019-04-23T14:09:21.148Z,39.43
2019-04-23T14:10:18.223Z,38.92
2019-04-23T14:12:17.853Z,39.12
2019-04-23T14:13:42.360Z,38.12
2019-04-23T14:14:25.029Z,37.01
2019-04-23T14:15:22.690Z,38.82
2019-04-23T14:17:27.592Z,38.94
2019-04-23T14:19:28.336Z,38.90
2019-04-23T14:20:13.786Z,39.22
2019-04-23T14:21:25.217Z,39.26
2019-04-23T14:22:48.770Z,36.71
2019-04-23T14:23:27.635Z,37.92
2019-04-23T14:24:40.754Z,39.22
2019-04-23T14:26:23.246Z,38.56
2019-04-23T14:27:20.164Z,38.76
2019-04-23T14:28:21.899Z,38.68
2019-04-23T14:29:21.551Z,39.04
2019-04-23T14:30:29.896Z,40.16
2019-04-23T14:31:31.809Z,38.26
2019-04-23T14:32:22.273Z,39.48
2019-04-23T14:33:26.691Z,39.14
2019-04-23T14:34:15.919Z,40.12
2019-04-23T14:36:19.161Z,38.66
2019-04-23T14:37:17.218Z,38.04
2019-04-23T14:38:22.314Z,39.20
2019-04-23T14:39:26.615Z,36.79
2019-04-23T14:40:26.615Z,37.90
2019-04-23T14:42:30.935Z,40.50
2019-04-23T14:43:38.476Z,38.52
2019-04-23T14:46:34.645Z,37.92
2019-04-23T14:47:38.143Z,38.72
2019-04-23T14:48:38.622Z,40.34
2019-04-23T14:49:24.624Z,39.54
2019-04-23T14:51:34.216Z,39.24
2019-04-23T14:53:24.398Z,39.54
2019-04-23T14:54:35.871Z,38.96
2019-04-23T14:56:39.571Z,41.14
2019-04-23T14:59:16.405Z,38.84
2019-04-23T15:00:30.659Z,38.66
2019-04-23T15:02:25.702Z,38.50
2019-04-23T15:03:32.908Z,38.22
2019-04-23T15:04:27.214Z,38.92
2019-04-23T15:05:29.766Z,40.52
2019-04-23T15:06:43.696Z,39.52
2019-04-23T15:07:28.283Z,40.45
2019-04-23T15:08:30.354Z,39.86
2019-04-23T15:09:28.072Z,39.59
2019-04-23T15:10:34.764Z,40.39
2019-04-23T15:12:30.544Z,40.56
2019-04-23T15:13:28.265Z,39.56
2019-04-23T15:14:36.166Z,39.98
2019-04-23T15:15:27.074Z,41.36
2019-04-23T15:17:30.498Z,39.04
2019-04-23T15:18:35.367Z,39.12
2019-04-23T15:19:37.922Z,38.66
2019-04-23T15:20:30.297Z,40.58
2019-04-23T15:22:43.916Z,39.94
2019-04-23T15:25:31.725Z,40.00
2019-04-23T15:28:03.499Z,40.30
2019-04-23T15:28:09.353Z,40.52
2019-04-23T15:29:12.950Z,40.94
2019-04-23T15:30:24.833Z,41.75
2019-04-23T15:31:33.045Z,40.45
2019-04-23T15:32:35.094Z,39.18
2019-04-23T15:33:38.876Z,41.08
2019-04-23T15:34:48.914Z,40.95
2019-04-23T15:35:47.811Z,40.53
2019-04-23T15:38:16.149Z,39.32
2019-04-23T15:38:53.749Z,40.52
2019-04-23T15:39:40.585Z,40.64
2019-04-23T15:41:40.492Z,40.64
2019-04-23T15:42:32.320Z,38.84
2019-04-23T15:43:34.303Z,40.23
2019-04-23T15:44:27.983Z,38.84
2019-04-23T15:45:39.938Z,39.56